Medi Baltimore — ICLW — position and weather

sailwx.info

Track history (hours):
 
Tides and Currents Weather Stations Pressure Air Temp Water Temp Dewpoint Dewpoint Depression Visibility Wind Speed Wind Dir Waves Ship Positions

Medi Baltimore

Last reported at 2017-Jul-09 11:43 UTC. Time now 2017-Aug-20 13:15 UTC.
Position N 33°01' W 131°44'.
Warning: this ship's position is 42 days out of date.

Length 225 m; draft 12.2 m.

Type: Cargo ship. MMSI: 247255300.

Date/timePositionNaut miles runAvg speedWind from/ knotsBaromVisibWave heightAir tempDewpointWater temp
2017-Jul-09 11:43N 33°01' W 131°44'512.6
2017-Jul-09 11:20N 32°59' W 131°39'512.3
2017-Jul-09 10:56N 32°57' W 131°34'3512.4
2017-Jul-09 08:08N 32°41' W 130°57'212.4
2017-Jul-09 08:00N 32°41' W 130°55'612.4
2017-Jul-09 07:30N 32°38' W 130°49'612.3
2017-Jul-09 07:00N 32°35' W 130°43'812.1
2017-Jul-09 06:22N 32°30' W 130°35'712.1
2017-Jul-09 05:48N 32°28' W 130°28'1512.4
2017-Jul-09 04:34N 32°21' W 130°11'1112.3
2017-Jul-09 03:39N 32°16' W 129°59'412.1
2017-Jul-09 03:20N 32°14' W 129°55'1312.0
2017-Jul-09 02:14N 32°07' W 129°43'1611.8
2017-Jul-09 00:54N 31°58' W 129°27'511.8
2017-Jul-09 00:30N 31°56' W 129°22'1511.8
2017-Jul-08 23:12N 31°48' W 129°06'211.6
2017-Jul-08 22:59N 31°47' W 129°04'611.7
2017-Jul-08 22:30N 31°43' W 128°58'611.7
2017-Jul-08 22:00N 31°40' W 128°53'711.9
2017-Jul-08 21:24N 31°37' W 128°45'511.8
2017-Jul-08 21:00N 31°34' W 128°41'611.6
2017-Jul-08 20:28N 31°30' W 128°35'611.8
2017-Jul-08 19:59N 31°27' W 128°29'611.8
2017-Jul-08 19:30N 31°24' W 128°24'612.0
2017-Jul-08 19:00N 31°21' W 128°17'611.8
2017-Jul-08 18:30N 31°18' W 128°12'611.8
2017-Jul-08 17:59N 31°15' W 128°06'612.1
2017-Jul-08 17:30N 31°12' W 127°60'612.1
2017-Jul-08 17:00N 31°09' W 127°54'612.3
2017-Jul-08 16:30N 31°06' W 127°48'612.3
2017-Jul-08 16:00N 31°02' W 127°41'612.2
2017-Jul-08 15:30N 30°59' W 127°35'612.4
2017-Jul-08 15:00N 30°56' W 127°29'1212.5
2017-Jul-08 14:00N 30°49' W 127°17'612.3
2017-Jul-08 13:30N 30°46' W 127°11'712.2
2017-Jul-08 12:56N 30°42' W 127°04'512.2
2017-Jul-08 12:29N 30°39' W 126°59'612.2
2017-Jul-08 12:00N 30°36' W 126°53'712.1
2017-Jul-08 11:25N 30°32' W 126°46'512.0
2017-Jul-08 11:00N 30°30' W 126°41'612.1
2017-Jul-08 10:30N 30°27' W 126°35'612.1
2017-Jul-08 10:00N 30°23' W 126°29'612.0
2017-Jul-08 09:30N 30°20' W 126°23'612.0
2017-Jul-08 09:00N 30°17' W 126°18'612.0
2017-Jul-08 08:30N 30°14' W 126°12'611.8
2017-Jul-08 08:00N 30°10' W 126°06'611.8
2017-Jul-08 07:30N 30°07' W 126°00'612.0
2017-Jul-08 07:00N 30°04' W 125°54'612.0
2017-Jul-08 06:30N 30°01' W 125°49'612.0
2017-Jul-08 06:00N 29°57' W 125°43'612.0
2017-Jul-08 05:30N 29°54' W 125°37'612.0
2017-Jul-08 05:00N 29°51' W 125°31'612.0
2017-Jul-08 04:30N 29°48' W 125°25'611.8
2017-Jul-08 04:00N 29°45' W 125°19'611.8
2017-Jul-08 03:28N 29°42' W 125°13'611.8
2017-Jul-08 02:59N 29°39' W 125°07'611.9
2017-Jul-08 02:30N 29°36' W 125°02'611.9
2017-Jul-08 02:00N 29°33' W 124°56'611.9
2017-Jul-08 01:30N 29°30' W 124°50'611.9
2017-Jul-08 00:59N 29°26' W 124°44'612.1
2017-Jul-08 00:30N 29°23' W 124°38'612.1
2017-Jul-08 00:00N 29°20' W 124°33'612.1
2017-Jul-07 23:29N 29°17' W 124°26'612.0
2017-Jul-07 23:00N 29°13' W 124°21'712.2
2017-Jul-07 22:25N 29°09' W 124°14'512.2
2017-Jul-07 22:00N 29°07' W 124°09'612.3
2017-Jul-07 21:29N 29°03' W 124°03'612.3
2017-Jul-07 21:00N 29°01' W 123°57'812.2
2017-Jul-07 20:21N 28°56' W 123°49'412.2
2017-Jul-07 19:59N 28°54' W 123°45'612.4
2017-Jul-07 19:30N 28°51' W 123°39'612.4
2017-Jul-07 19:00N 28°48' W 123°33'712.5
2017-Jul-07 18:26N 28°44' W 123°26'512.3
2017-Jul-07 18:00N 28°41' W 123°21'612.4
2017-Jul-07 17:29N 28°37' W 123°15'612.5
2017-Jul-07 17:00N 28°34' W 123°10'612.3
2017-Jul-07 16:30N 28°30' W 123°04'612.5
2017-Jul-07 16:00N 28°26' W 122°58'612.3
2017-Jul-07 15:28N 28°23' W 122°52'612.3
2017-Jul-07 15:00N 28°20' W 122°47'1212.3
2017-Jul-07 14:00N 28°14' W 122°34'612.2
2017-Jul-07 13:30N 28°11' W 122°28'612.1
2017-Jul-07 13:00N 28°08' W 122°22'612.2
2017-Jul-07 12:30N 28°05' W 122°17'612.3
2017-Jul-07 11:59N 28°01' W 122°10'612.4
2017-Jul-07 11:27N 27°58' W 122°04'612.3
2017-Jul-07 11:00N 27°55' W 121°59'812.6
2017-Jul-07 10:20N 27°50' W 121°51'812.5
2017-Jul-07 09:40N 27°46' W 121°43'412.3
2017-Jul-07 09:19N 27°44' W 121°39'412.2
2017-Jul-07 09:00N 27°42' W 121°35'612.2
2017-Jul-07 08:30N 27°39' W 121°29'612.4
2017-Jul-07 08:00N 27°35' W 121°23'612.3
2017-Jul-07 07:30N 27°32' W 121°17'612.3
2017-Jul-07 07:00N 27°29' W 121°11'612.3
2017-Jul-07 06:29N 27°26' W 121°05'612.2
2017-Jul-07 06:00N 27°23' W 120°59'712.2
2017-Jul-07 05:26N 27°19' W 120°53'512.3
2017-Jul-07 04:59N 27°16' W 120°48'612.4
2017-Jul-07 04:30N 27°13' W 120°42'612.3
2017-Jul-07 04:00N 27°09' W 120°36'612.2
2017-Jul-07 03:30N 27°06' W 120°30'612.1
2017-Jul-07 03:00N 27°03' W 120°25'612.1
2017-Jul-07 02:30N 26°59' W 120°19'612.0
2017-Jul-07 02:00N 26°56' W 120°13'612.1
2017-Jul-07 01:30N 26°53' W 120°08'612.1
2017-Jul-07 01:00N 26°49' W 120°02'612.1
2017-Jul-07 00:30N 26°46' W 119°56'712.1
2017-Jul-06 23:55N 26°42' W 119°50'912.0
2017-Jul-06 23:12N 26°37' W 119°42'  
Track history (hours):
 
Tides and Currents Weather Stations Pressure Air Temp Water Temp Dewpoint Dewpoint Depression Visibility Wind Speed Wind Dir Waves Ship Positions

Medi Baltimore

Last reported at 2017-Jul-09 11:43 UTC. Time now 2017-Aug-20 13:15 UTC.
Position N 33°01' W 131°44'.
Warning: this ship's position is 42 days out of date.

Length 225 m; draft 12.2 m.

Type: Cargo ship. MMSI: 247255300.

Date/timePositionNaut miles runAvg speedWind from/ knotsBaromVisibWave heightAir tempDewpointWater temp
2017-Jul-09 11:43N 33°01' W 131°44'512.6
2017-Jul-09 11:20N 32°59' W 131°39'512.3
2017-Jul-09 10:56N 32°57' W 131°34'3512.4
2017-Jul-09 08:08N 32°41' W 130°57'212.4
2017-Jul-09 08:00N 32°41' W 130°55'612.4
2017-Jul-09 07:30N 32°38' W 130°49'612.3
2017-Jul-09 07:00N 32°35' W 130°43'812.1
2017-Jul-09 06:22N 32°30' W 130°35'712.1
2017-Jul-09 05:48N 32°28' W 130°28'1512.4
2017-Jul-09 04:34N 32°21' W 130°11'1112.3
2017-Jul-09 03:39N 32°16' W 129°59'412.1
2017-Jul-09 03:20N 32°14' W 129°55'1312.0
2017-Jul-09 02:14N 32°07' W 129°43'1611.8
2017-Jul-09 00:54N 31°58' W 129°27'511.8
2017-Jul-09 00:30N 31°56' W 129°22'1511.8
2017-Jul-08 23:12N 31°48' W 129°06'211.6
2017-Jul-08 22:59N 31°47' W 129°04'611.7
2017-Jul-08 22:30N 31°43' W 128°58'611.7
2017-Jul-08 22:00N 31°40' W 128°53'711.9
2017-Jul-08 21:24N 31°37' W 128°45'511.8
2017-Jul-08 21:00N 31°34' W 128°41'611.6
2017-Jul-08 20:28N 31°30' W 128°35'611.8
2017-Jul-08 19:59N 31°27' W 128°29'611.8
2017-Jul-08 19:30N 31°24' W 128°24'612.0
2017-Jul-08 19:00N 31°21' W 128°17'611.8
2017-Jul-08 18:30N 31°18' W 128°12'611.8
2017-Jul-08 17:59N 31°15' W 128°06'612.1
2017-Jul-08 17:30N 31°12' W 127°60'612.1
2017-Jul-08 17:00N 31°09' W 127°54'612.3
2017-Jul-08 16:30N 31°06' W 127°48'612.3
2017-Jul-08 16:00N 31°02' W 127°41'612.2
2017-Jul-08 15:30N 30°59' W 127°35'612.4
2017-Jul-08 15:00N 30°56' W 127°29'1212.5
2017-Jul-08 14:00N 30°49' W 127°17'612.3
2017-Jul-08 13:30N 30°46' W 127°11'712.2
2017-Jul-08 12:56N 30°42' W 127°04'512.2
2017-Jul-08 12:29N 30°39' W 126°59'612.2
2017-Jul-08 12:00N 30°36' W 126°53'712.1
2017-Jul-08 11:25N 30°32' W 126°46'512.0
2017-Jul-08 11:00N 30°30' W 126°41'612.1
2017-Jul-08 10:30N 30°27' W 126°35'612.1
2017-Jul-08 10:00N 30°23' W 126°29'612.0
2017-Jul-08 09:30N 30°20' W 126°23'612.0
2017-Jul-08 09:00N 30°17' W 126°18'612.0
2017-Jul-08 08:30N 30°14' W 126°12'611.8
2017-Jul-08 08:00N 30°10' W 126°06'611.8
2017-Jul-08 07:30N 30°07' W 126°00'612.0
2017-Jul-08 07:00N 30°04' W 125°54'612.0
2017-Jul-08 06:30N 30°01' W 125°49'612.0
2017-Jul-08 06:00N 29°57' W 125°43'612.0
2017-Jul-08 05:30N 29°54' W 125°37'612.0
2017-Jul-08 05:00N 29°51' W 125°31'612.0
2017-Jul-08 04:30N 29°48' W 125°25'611.8
2017-Jul-08 04:00N 29°45' W 125°19'611.8
2017-Jul-08 03:28N 29°42' W 125°13'611.8
2017-Jul-08 02:59N 29°39' W 125°07'611.9
2017-Jul-08 02:30N 29°36' W 125°02'611.9
2017-Jul-08 02:00N 29°33' W 124°56'611.9
2017-Jul-08 01:30N 29°30' W 124°50'611.9
2017-Jul-08 00:59N 29°26' W 124°44'612.1
2017-Jul-08 00:30N 29°23' W 124°38'612.1
2017-Jul-08 00:00N 29°20' W 124°33'612.1
2017-Jul-07 23:29N 29°17' W 124°26'612.0
2017-Jul-07 23:00N 29°13' W 124°21'712.2
2017-Jul-07 22:25N 29°09' W 124°14'512.2
2017-Jul-07 22:00N 29°07' W 124°09'612.3
2017-Jul-07 21:29N 29°03' W 124°03'612.3
2017-Jul-07 21:00N 29°01' W 123°57'812.2
2017-Jul-07 20:21N 28°56' W 123°49'412.2
2017-Jul-07 19:59N 28°54' W 123°45'612.4
2017-Jul-07 19:30N 28°51' W 123°39'612.4
2017-Jul-07 19:00N 28°48' W 123°33'712.5
2017-Jul-07 18:26N 28°44' W 123°26'512.3
2017-Jul-07 18:00N 28°41' W 123°21'612.4
2017-Jul-07 17:29N 28°37' W 123°15'612.5
2017-Jul-07 17:00N 28°34' W 123°10'612.3
2017-Jul-07 16:30N 28°30' W 123°04'612.5
2017-Jul-07 16:00N 28°26' W 122°58'612.3
2017-Jul-07 15:28N 28°23' W 122°52'612.3
2017-Jul-07 15:00N 28°20' W 122°47'1212.3
2017-Jul-07 14:00N 28°14' W 122°34'612.2
2017-Jul-07 13:30N 28°11' W 122°28'612.1
2017-Jul-07 13:00N 28°08' W 122°22'612.2
2017-Jul-07 12:30N 28°05' W 122°17'612.3
2017-Jul-07 11:59N 28°01' W 122°10'612.4
2017-Jul-07 11:27N 27°58' W 122°04'612.3
2017-Jul-07 11:00N 27°55' W 121°59'812.6
2017-Jul-07 10:20N 27°50' W 121°51'812.5
2017-Jul-07 09:40N 27°46' W 121°43'412.3
2017-Jul-07 09:19N 27°44' W 121°39'412.2
2017-Jul-07 09:00N 27°42' W 121°35'612.2
2017-Jul-07 08:30N 27°39' W 121°29'612.4
2017-Jul-07 08:00N 27°35' W 121°23'612.3
2017-Jul-07 07:30N 27°32' W 121°17'612.3
2017-Jul-07 07:00N 27°29' W 121°11'612.3
2017-Jul-07 06:29N 27°26' W 121°05'612.2
2017-Jul-07 06:00N 27°23' W 120°59'712.2
2017-Jul-07 05:26N 27°19' W 120°53'512.3
2017-Jul-07 04:59N 27°16' W 120°48'612.4
2017-Jul-07 04:30N 27°13' W 120°42'612.3
2017-Jul-07 04:00N 27°09' W 120°36'612.2
2017-Jul-07 03:30N 27°06' W 120°30'612.1
2017-Jul-07 03:00N 27°03' W 120°25'612.1
2017-Jul-07 02:30N 26°59' W 120°19'612.0
2017-Jul-07 02:00N 26°56' W 120°13'612.1
2017-Jul-07 01:30N 26°53' W 120°08'612.1
2017-Jul-07 01:00N 26°49' W 120°02'612.1
2017-Jul-07 00:30N 26°46' W 119°56'712.1
2017-Jul-06 23:55N 26°42' W 119°50'912.0
2017-Jul-06 23:12N 26°37' W 119°42'  

Dump ship's entire track history